sensor_id;sensor_type;location;lat;lon;timestamp;P1;durP1;ratioP1;P2;durP2;ratioP2
55913;SDS011;58179;48.776;9.124;2022-07-29T00:01:31;7.43;;;4.97;;
55913;SDS011;58179;48.776;9.124;2022-07-29T00:03:57;7.63;;;4.85;;
55913;SDS011;58179;48.776;9.124;2022-07-29T00:06:22;6.13;;;4.80;;
55913;SDS011;58179;48.776;9.124;2022-07-29T00:08:48;6.65;;;4.90;;
55913;SDS011;58179;48.776;9.124;2022-07-29T00:11:14;9.25;;;4.72;;
55913;SDS011;58179;48.776;9.124;2022-07-29T00:13:42;7.00;;;4.60;;
55913;SDS011;58179;48.776;9.124;2022-07-29T00:16:08;8.38;;;5.05;;
55913;SDS011;58179;48.776;9.124;2022-07-29T00:18:34;7.80;;;4.68;;
55913;SDS011;58179;48.776;9.124;2022-07-29T00:21:00;7.13;;;4.60;;
55913;SDS011;58179;48.776;9.124;2022-07-29T00:23:26;8.18;;;5.10;;
55913;SDS011;58179;48.776;9.124;2022-07-29T00:25:51;8.25;;;4.80;;
55913;SDS011;58179;48.776;9.124;2022-07-29T00:28:17;7.30;;;4.68;;
55913;SDS011;58179;48.776;9.124;2022-07-29T00:30:45;6.87;;;4.87;;
55913;SDS011;58179;48.776;9.124;2022-07-29T00:33:11;5.85;;;4.57;;
55913;SDS011;58179;48.776;9.124;2022-07-29T00:35:36;5.43;;;4.35;;
55913;SDS011;58179;48.776;9.124;2022-07-29T00:38:09;7.82;;;4.53;;
55913;SDS011;58179;48.776;9.124;2022-07-29T00:40:35;5.93;;;4.20;;
55913;SDS011;58179;48.776;9.124;2022-07-29T00:43:02;8.13;;;4.43;;
55913;SDS011;58179;48.776;9.124;2022-07-29T00:45:28;5.78;;;4.32;;
55913;SDS011;58179;48.776;9.124;2022-07-29T00:47:56;7.65;;;4.30;;
55913;SDS011;58179;48.776;9.124;2022-07-29T00:50:22;7.38;;;4.78;;
55913;SDS011;58179;48.776;9.124;2022-07-29T00:52:49;6.22;;;4.05;;
55913;SDS011;58179;48.776;9.124;2022-07-29T00:55:16;6.60;;;4.33;;
55913;SDS011;58179;48.776;9.124;2022-07-29T00:57:43;6.38;;;4.03;;
55913;SDS011;58179;48.776;9.124;2022-07-29T01:00:11;5.40;;;4.28;;
55913;SDS011;58179;48.776;9.124;2022-07-29T01:02:42;6.70;;;4.25;;
55913;SDS011;58179;48.776;9.124;2022-07-29T01:05:09;6.65;;;4.05;;
55913;SDS011;58179;48.776;9.124;2022-07-29T01:07:37;5.47;;;4.00;;
55913;SDS011;58179;48.776;9.124;2022-07-29T01:10:05;5.57;;;3.83;;
55913;SDS011;58179;48.776;9.124;2022-07-29T01:12:34;5.45;;;3.95;;
55913;SDS011;58179;48.776;9.124;2022-07-29T01:15:03;6.65;;;3.83;;
55913;SDS011;58179;48.776;9.124;2022-07-29T01:17:33;6.70;;;4.30;;
55913;SDS011;58179;48.776;9.124;2022-07-29T01:20:07;9.10;;;3.90;;
55913;SDS011;58179;48.776;9.124;2022-07-29T01:22:48;4.70;;;3.63;;
55913;SDS011;58179;48.776;9.124;2022-07-29T01:25:48;4.97;;;3.83;;
55913;SDS011;58179;48.776;9.124;2022-07-29T01:29:03;6.32;;;4.18;;
55913;SDS011;58179;48.776;9.124;2022-07-29T01:31:39;5.20;;;3.70;;
55913;SDS011;58179;48.776;9.124;2022-07-29T01:34:11;4.65;;;3.53;;
55913;SDS011;58179;48.776;9.124;2022-07-29T01:36:48;5.90;;;3.97;;
55913;SDS011;58179;48.776;9.124;2022-07-29T01:39:18;5.70;;;3.60;;
55913;SDS011;58179;48.776;9.124;2022-07-29T01:41:52;7.10;;;3.90;;
55913;SDS011;58179;48.776;9.124;2022-07-29T01:44:26;6.03;;;3.53;;
55913;SDS011;58179;48.776;9.124;2022-07-29T01:46:58;5.15;;;3.85;;
55913;SDS011;58179;48.776;9.124;2022-07-29T01:49:35;4.53;;;3.58;;
55913;SDS011;58179;48.776;9.124;2022-07-29T01:52:07;4.53;;;3.60;;
55913;SDS011;58179;48.776;9.124;2022-07-29T01:54:38;6.50;;;3.80;;
55913;SDS011;58179;48.776;9.124;2022-07-29T01:57:11;6.63;;;4.10;;
55913;SDS011;58179;48.776;9.124;2022-07-29T01:59:41;6.03;;;3.70;;
55913;SDS011;58179;48.776;9.124;2022-07-29T02:02:08;6.90;;;4.18;;
55913;SDS011;58179;48.776;9.124;2022-07-29T02:04:36;7.40;;;3.78;;
55913;SDS011;58179;48.776;9.124;2022-07-29T02:07:05;5.50;;;3.33;;
55913;SDS011;58179;48.776;9.124;2022-07-29T02:09:36;5.60;;;3.40;;
55913;SDS011;58179;48.776;9.124;2022-07-29T02:12:04;4.72;;;3.58;;
55913;SDS011;58179;48.776;9.124;2022-07-29T02:14:33;4.40;;;3.45;;
55913;SDS011;58179;48.776;9.124;2022-07-29T02:17:06;6.07;;;3.70;;
55913;SDS011;58179;48.776;9.124;2022-07-29T02:19:34;4.43;;;3.50;;
55913;SDS011;58179;48.776;9.124;2022-07-29T02:22:02;4.05;;;3.25;;
55913;SDS011;58179;48.776;9.124;2022-07-29T02:24:31;4.63;;;3.38;;
55913;SDS011;58179;48.776;9.124;2022-07-29T02:26:57;3.72;;;3.28;;
55913;SDS011;58179;48.776;9.124;2022-07-29T02:29:26;5.40;;;3.40;;
55913;SDS011;58179;48.776;9.124;2022-07-29T02:31:55;7.68;;;4.03;;
55913;SDS011;58179;48.776;9.124;2022-07-29T02:34:25;5.80;;;3.50;;
55913;SDS011;58179;48.776;9.124;2022-07-29T02:36:53;4.78;;;3.63;;
55913;SDS011;58179;48.776;9.124;2022-07-29T02:39:20;4.28;;;3.30;;
55913;SDS011;58179;48.776;9.124;2022-07-29T02:41:50;4.25;;;3.42;;
55913;SDS011;58179;48.776;9.124;2022-07-29T02:44:22;4.60;;;3.65;;
55913;SDS011;58179;48.776;9.124;2022-07-29T02:46:52;6.93;;;3.60;;
55913;SDS011;58179;48.776;9.124;2022-07-29T02:49:28;5.43;;;3.38;;
55913;SDS011;58179;48.776;9.124;2022-07-29T02:52:01;4.90;;;3.20;;
55913;SDS011;58179;48.776;9.124;2022-07-29T02:54:34;11.17;;;4.00;;
55913;SDS011;58179;48.776;9.124;2022-07-29T02:57:08;4.03;;;3.30;;
55913;SDS011;58179;48.776;9.124;2022-07-29T02:59:42;4.18;;;3.30;;
55913;SDS011;58179;48.776;9.124;2022-07-29T03:02:10;4.30;;;3.53;;
55913;SDS011;58179;48.776;9.124;2022-07-29T03:04:40;4.97;;;3.13;;
55913;SDS011;58179;48.776;9.124;2022-07-29T03:07:09;4.30;;;3.17;;
55913;SDS011;58179;48.776;9.124;2022-07-29T03:09:38;5.97;;;3.70;;
55913;SDS011;58179;48.776;9.124;2022-07-29T03:12:06;3.67;;;3.17;;
55913;SDS011;58179;48.776;9.124;2022-07-29T03:14:33;5.88;;;3.70;;
55913;SDS011;58179;48.776;9.124;2022-07-29T03:17:00;5.70;;;3.83;;
55913;SDS011;58179;48.776;9.124;2022-07-29T03:19:27;3.65;;;3.20;;
55913;SDS011;58179;48.776;9.124;2022-07-29T03:21:56;4.82;;;3.28;;
55913;SDS011;58179;48.776;9.124;2022-07-29T03:24:24;4.72;;;3.47;;
55913;SDS011;58179;48.776;9.124;2022-07-29T03:26:51;7.30;;;3.30;;
55913;SDS011;58179;48.776;9.124;2022-07-29T03:29:19;5.25;;;3.45;;
55913;SDS011;58179;48.776;9.124;2022-07-29T03:31:45;4.07;;;3.50;;
55913;SDS011;58179;48.776;9.124;2022-07-29T03:34:11;7.28;;;3.50;;
55913;SDS011;58179;48.776;9.124;2022-07-29T03:36:37;5.57;;;3.35;;
55913;SDS011;58179;48.776;9.124;2022-07-29T03:39:04;7.80;;;3.90;;
55913;SDS011;58179;48.776;9.124;2022-07-29T03:41:31;4.75;;;3.53;;
55913;SDS011;58179;48.776;9.124;2022-07-29T03:44:00;4.82;;;3.80;;
55913;SDS011;58179;48.776;9.124;2022-07-29T03:46:29;5.43;;;3.60;;
55913;SDS011;58179;48.776;9.124;2022-07-29T03:48:58;5.22;;;3.35;;
55913;SDS011;58179;48.776;9.124;2022-07-29T03:51:26;4.72;;;3.55;;
55913;SDS011;58179;48.776;9.124;2022-07-29T03:53:52;4.28;;;3.33;;
55913;SDS011;58179;48.776;9.124;2022-07-29T03:56:20;5.10;;;3.50;;
55913;SDS011;58179;48.776;9.124;2022-07-29T03:58:48;4.03;;;3.30;;
55913;SDS011;58179;48.776;9.124;2022-07-29T04:01:16;3.70;;;3.27;;
55913;SDS011;58179;48.776;9.124;2022-07-29T04:03:43;4.55;;;3.67;;
55913;SDS011;58179;48.776;9.124;2022-07-29T04:06:12;5.57;;;3.90;;
55913;SDS011;58179;48.776;9.124;2022-07-29T04:08:39;4.10;;;3.25;;
55913;SDS011;58179;48.776;9.124;2022-07-29T04:11:05;4.40;;;3.45;;
55913;SDS011;58179;48.776;9.124;2022-07-29T04:13:33;4.60;;;3.30;;
55913;SDS011;58179;48.776;9.124;2022-07-29T04:15:59;4.97;;;3.45;;
55913;SDS011;58179;48.776;9.124;2022-07-29T04:18:26;6.18;;;3.45;;
55913;SDS011;58179;48.776;9.124;2022-07-29T04:20:52;4.25;;;3.47;;
55913;SDS011;58179;48.776;9.124;2022-07-29T04:23:18;5.10;;;3.40;;
55913;SDS011;58179;48.776;9.124;2022-07-29T04:25:44;5.20;;;3.80;;
55913;SDS011;58179;48.776;9.124;2022-07-29T04:28:10;4.78;;;3.80;;
55913;SDS011;58179;48.776;9.124;2022-07-29T04:30:37;5.32;;;3.60;;
55913;SDS011;58179;48.776;9.124;2022-07-29T04:33:04;3.65;;;3.22;;
55913;SDS011;58179;48.776;9.124;2022-07-29T04:35:33;4.68;;;3.60;;
55913;SDS011;58179;48.776;9.124;2022-07-29T04:38:01;4.28;;;3.17;;
55913;SDS011;58179;48.776;9.124;2022-07-29T04:40:27;4.47;;;3.10;;
55913;SDS011;58179;48.776;9.124;2022-07-29T04:42:54;4.60;;;2.85;;
55913;SDS011;58179;48.776;9.124;2022-07-29T04:45:20;3.40;;;3.00;;
55913;SDS011;58179;48.776;9.124;2022-07-29T04:47:48;4.75;;;3.20;;
55913;SDS011;58179;48.776;9.124;2022-07-29T04:50:14;5.78;;;3.00;;
55913;SDS011;58179;48.776;9.124;2022-07-29T04:52:40;3.10;;;2.67;;
55913;SDS011;58179;48.776;9.124;2022-07-29T04:55:06;4.97;;;3.10;;
55913;SDS011;58179;48.776;9.124;2022-07-29T04:57:33;6.32;;;3.00;;
55913;SDS011;58179;48.776;9.124;2022-07-29T04:59:59;4.57;;;3.03;;
55913;SDS011;58179;48.776;9.124;2022-07-29T05:02:25;4.85;;;3.15;;
55913;SDS011;58179;48.776;9.124;2022-07-29T05:04:52;4.90;;;3.05;;
55913;SDS011;58179;48.776;9.124;2022-07-29T05:07:18;6.50;;;3.00;;
55913;SDS011;58179;48.776;9.124;2022-07-29T05:09:44;2.70;;;2.50;;
55913;SDS011;58179;48.776;9.124;2022-07-29T05:12:10;4.57;;;2.70;;
55913;SDS011;58179;48.776;9.124;2022-07-29T05:14:37;3.42;;;2.75;;
55913;SDS011;58179;48.776;9.124;2022-07-29T05:17:03;5.35;;;2.95;;
55913;SDS011;58179;48.776;9.124;2022-07-29T05:19:29;4.10;;;2.58;;
55913;SDS011;58179;48.776;9.124;2022-07-29T05:21:56;2.72;;;2.42;;
55913;SDS011;58179;48.776;9.124;2022-07-29T05:24:22;3.72;;;2.83;;
55913;SDS011;58179;48.776;9.124;2022-07-29T05:26:48;3.13;;;2.50;;
55913;SDS011;58179;48.776;9.124;2022-07-29T05:29:14;4.03;;;3.05;;
55913;SDS011;58179;48.776;9.124;2022-07-29T05:31:40;4.15;;;2.50;;
55913;SDS011;58179;48.776;9.124;2022-07-29T05:34:06;3.67;;;2.55;;
55913;SDS011;58179;48.776;9.124;2022-07-29T05:36:32;5.20;;;2.90;;
55913;SDS011;58179;48.776;9.124;2022-07-29T05:38:59;3.67;;;2.60;;
55913;SDS011;58179;48.776;9.124;2022-07-29T05:41:25;5.22;;;3.00;;
55913;SDS011;58179;48.776;9.124;2022-07-29T05:43:51;4.90;;;2.78;;
55913;SDS011;58179;48.776;9.124;2022-07-29T05:46:20;5.88;;;3.08;;
55913;SDS011;58179;48.776;9.124;2022-07-29T05:48:47;3.92;;;2.65;;
55913;SDS011;58179;48.776;9.124;2022-07-29T05:51:13;3.70;;;2.95;;
55913;SDS011;58179;48.776;9.124;2022-07-29T05:53:39;5.68;;;2.92;;
55913;SDS011;58179;48.776;9.124;2022-07-29T05:56:06;4.80;;;2.70;;
55913;SDS011;58179;48.776;9.124;2022-07-29T05:58:32;9.23;;;3.00;;
55913;SDS011;58179;48.776;9.124;2022-07-29T06:00:58;3.58;;;2.42;;
55913;SDS011;58179;48.776;9.124;2022-07-29T06:03:25;4.37;;;2.80;;
55913;SDS011;58179;48.776;9.124;2022-07-29T06:05:55;3.80;;;2.80;;
55913;SDS011;58179;48.776;9.124;2022-07-29T06:08:21;5.45;;;3.40;;
55913;SDS011;58179;48.776;9.124;2022-07-29T06:10:47;5.70;;;3.17;;
55913;SDS011;58179;48.776;9.124;2022-07-29T06:13:14;6.20;;;2.78;;
55913;SDS011;58179;48.776;9.124;2022-07-29T06:15:40;4.57;;;2.73;;
55913;SDS011;58179;48.776;9.124;2022-07-29T06:18:07;3.78;;;3.05;;
55913;SDS011;58179;48.776;9.124;2022-07-29T06:20:34;6.20;;;3.10;;
55913;SDS011;58179;48.776;9.124;2022-07-29T06:23:01;5.18;;;2.85;;
55913;SDS011;58179;48.776;9.124;2022-07-29T06:25:29;3.75;;;3.05;;
55913;SDS011;58179;48.776;9.124;2022-07-29T06:27:57;5.55;;;3.20;;
55913;SDS011;58179;48.776;9.124;2022-07-29T06:30:24;4.43;;;3.10;;
55913;SDS011;58179;48.776;9.124;2022-07-29T06:32:50;7.35;;;2.97;;
55913;SDS011;58179;48.776;9.124;2022-07-29T06:35:16;7.95;;;3.10;;
55913;SDS011;58179;48.776;9.124;2022-07-29T06:37:43;6.53;;;3.30;;
55913;SDS011;58179;48.776;9.124;2022-07-29T06:40:09;3.85;;;2.92;;
55913;SDS011;58179;48.776;9.124;2022-07-29T06:42:55;5.22;;;3.00;;
55913;SDS011;58179;48.776;9.124;2022-07-29T06:45:21;6.30;;;3.20;;
55913;SDS011;58179;48.776;9.124;2022-07-29T06:47:48;5.00;;;2.97;;
55913;SDS011;58179;48.776;9.124;2022-07-29T06:50:14;7.65;;;3.20;;
55913;SDS011;58179;48.776;9.124;2022-07-29T06:52:41;4.35;;;3.10;;
55913;SDS011;58179;48.776;9.124;2022-07-29T06:55:07;6.95;;;3.33;;
55913;SDS011;58179;48.776;9.124;2022-07-29T06:57:34;6.72;;;3.72;;
55913;SDS011;58179;48.776;9.124;2022-07-29T07:00:00;6.38;;;3.10;;
55913;SDS011;58179;48.776;9.124;2022-07-29T07:02:28;3.60;;;3.05;;
55913;SDS011;58179;48.776;9.124;2022-07-29T07:04:55;5.13;;;3.03;;
55913;SDS011;58179;48.776;9.124;2022-07-29T07:07:21;4.43;;;3.08;;
55913;SDS011;58179;48.776;9.124;2022-07-29T07:09:47;5.40;;;2.80;;
55913;SDS011;58179;48.776;9.124;2022-07-29T07:12:13;3.58;;;2.90;;
55913;SDS011;58179;48.776;9.124;2022-07-29T07:14:39;4.03;;;2.70;;
55913;SDS011;58179;48.776;9.124;2022-07-29T07:17:05;3.35;;;2.58;;
55913;SDS011;58179;48.776;9.124;2022-07-29T07:19:32;5.70;;;2.95;;
55913;SDS011;58179;48.776;9.124;2022-07-29T07:21:59;3.40;;;2.90;;
55913;SDS011;58179;48.776;9.124;2022-07-29T07:24:25;4.75;;;2.92;;
55913;SDS011;58179;48.776;9.124;2022-07-29T07:26:51;3.97;;;3.00;;
55913;SDS011;58179;48.776;9.124;2022-07-29T07:29:17;7.30;;;3.50;;
55913;SDS011;58179;48.776;9.124;2022-07-29T07:31:43;5.20;;;3.30;;
55913;SDS011;58179;48.776;9.124;2022-07-29T07:34:10;5.63;;;3.43;;
55913;SDS011;58179;48.776;9.124;2022-07-29T07:36:36;5.07;;;3.23;;
55913;SDS011;58179;48.776;9.124;2022-07-29T07:39:03;5.00;;;2.93;;
55913;SDS011;58179;48.776;9.124;2022-07-29T07:41:30;4.23;;;3.10;;
55913;SDS011;58179;48.776;9.124;2022-07-29T07:43:56;5.37;;;3.17;;
55913;SDS011;58179;48.776;9.124;2022-07-29T07:46:22;5.00;;;3.27;;
55913;SDS011;58179;48.776;9.124;2022-07-29T07:48:48;5.30;;;3.15;;
55913;SDS011;58179;48.776;9.124;2022-07-29T07:51:14;3.97;;;3.03;;
55913;SDS011;58179;48.776;9.124;2022-07-29T07:53:40;3.95;;;3.15;;
55913;SDS011;58179;48.776;9.124;2022-07-29T07:56:07;4.70;;;2.95;;
55913;SDS011;58179;48.776;9.124;2022-07-29T07:58:33;3.40;;;3.10;;
55913;SDS011;58179;48.776;9.124;2022-07-29T08:01:00;3.92;;;2.90;;
55913;SDS011;58179;48.776;9.124;2022-07-29T08:03:26;4.60;;;2.80;;
55913;SDS011;58179;48.776;9.124;2022-07-29T08:05:52;6.40;;;3.75;;
55913;SDS011;58179;48.776;9.124;2022-07-29T08:08:19;5.80;;;2.90;;
55913;SDS011;58179;48.776;9.124;2022-07-29T08:10:45;6.40;;;3.33;;
55913;SDS011;58179;48.776;9.124;2022-07-29T08:13:19;4.38;;;3.38;;
55913;SDS011;58179;48.776;9.124;2022-07-29T08:15:46;6.40;;;3.33;;
55913;SDS011;58179;48.776;9.124;2022-07-29T08:18:22;5.15;;;3.20;;
55913;SDS011;58179;48.776;9.124;2022-07-29T08:20:48;6.00;;;3.20;;
55913;SDS011;58179;48.776;9.124;2022-07-29T08:23:14;6.20;;;3.57;;
55913;SDS011;58179;48.776;9.124;2022-07-29T08:25:40;4.70;;;3.10;;
55913;SDS011;58179;48.776;9.124;2022-07-29T08:28:07;5.18;;;3.03;;
55913;SDS011;58179;48.776;9.124;2022-07-29T08:30:34;4.18;;;3.20;;
55913;SDS011;58179;48.776;9.124;2022-07-29T08:33:00;4.45;;;2.90;;
55913;SDS011;58179;48.776;9.124;2022-07-29T08:35:26;6.30;;;3.57;;
55913;SDS011;58179;48.776;9.124;2022-07-29T08:37:53;5.10;;;3.08;;
55913;SDS011;58179;48.776;9.124;2022-07-29T08:40:20;6.33;;;2.90;;
55913;SDS011;58179;48.776;9.124;2022-07-29T08:42:46;6.38;;;3.47;;
55913;SDS011;58179;48.776;9.124;2022-07-29T08:45:12;4.85;;;3.10;;
55913;SDS011;58179;48.776;9.124;2022-07-29T08:47:39;6.20;;;3.40;;
55913;SDS011;58179;48.776;9.124;2022-07-29T08:50:06;5.82;;;3.40;;
55913;SDS011;58179;48.776;9.124;2022-07-29T08:52:34;4.72;;;3.33;;
55913;SDS011;58179;48.776;9.124;2022-07-29T08:55:06;6.90;;;3.30;;
55913;SDS011;58179;48.776;9.124;2022-07-29T08:57:34;4.00;;;3.10;;
55913;SDS011;58179;48.776;9.124;2022-07-29T09:00:04;7.50;;;2.87;;
55913;SDS011;58179;48.776;9.124;2022-07-29T09:02:35;6.75;;;3.55;;
55913;SDS011;58179;48.776;9.124;2022-07-29T09:05:07;5.85;;;3.42;;
55913;SDS011;58179;48.776;9.124;2022-07-29T09:07:33;5.73;;;3.40;;
55913;SDS011;58179;48.776;9.124;2022-07-29T09:10:00;4.18;;;2.95;;
55913;SDS011;58179;48.776;9.124;2022-07-29T09:12:28;4.68;;;3.10;;
55913;SDS011;58179;48.776;9.124;2022-07-29T09:14:55;4.35;;;3.15;;
55913;SDS011;58179;48.776;9.124;2022-07-29T09:20:10;5.00;;;3.40;;
55913;SDS011;58179;48.776;9.124;2022-07-29T09:22:38;4.30;;;2.97;;
55913;SDS011;58179;48.776;9.124;2022-07-29T09:25:04;5.20;;;3.10;;
55913;SDS011;58179;48.776;9.124;2022-07-29T09:27:31;8.85;;;3.88;;
55913;SDS011;58179;48.776;9.124;2022-07-29T09:29:59;6.30;;;3.70;;
55913;SDS011;58179;48.776;9.124;2022-07-29T09:32:28;7.50;;;3.63;;
55913;SDS011;58179;48.776;9.124;2022-07-29T09:37:41;7.53;;;3.77;;
55913;SDS011;58179;48.776;9.124;2022-07-29T09:40:11;4.25;;;3.20;;
55913;SDS011;58179;48.776;9.124;2022-07-29T09:42:38;7.97;;;3.45;;
55913;SDS011;58179;48.776;9.124;2022-07-29T09:45:05;8.90;;;3.78;;
55913;SDS011;58179;48.776;9.124;2022-07-29T09:47:40;10.13;;;3.45;;
55913;SDS011;58179;48.776;9.124;2022-07-29T09:50:10;5.83;;;3.40;;
55913;SDS011;58179;48.776;9.124;2022-07-29T09:52:44;7.93;;;3.58;;
55913;SDS011;58179;48.776;9.124;2022-07-29T09:55:12;4.50;;;2.90;;
55913;SDS011;58179;48.776;9.124;2022-07-29T09:57:39;4.70;;;3.40;;
55913;SDS011;58179;48.776;9.124;2022-07-29T10:00:07;4.97;;;3.17;;
55913;SDS011;58179;48.776;9.124;2022-07-29T10:02:35;7.95;;;3.05;;
55913;SDS011;58179;48.776;9.124;2022-07-29T10:05:04;6.55;;;3.30;;
55913;SDS011;58179;48.776;9.124;2022-07-29T10:07:46;7.30;;;3.50;;
55913;SDS011;58179;48.776;9.124;2022-07-29T10:10:20;6.78;;;3.35;;
55913;SDS011;58179;48.776;9.124;2022-07-29T10:12:49;11.52;;;3.22;;
55913;SDS011;58179;48.776;9.124;2022-07-29T10:15:18;6.07;;;3.22;;
55913;SDS011;58179;48.776;9.124;2022-07-29T10:17:47;3.75;;;3.03;;
55913;SDS011;58179;48.776;9.124;2022-07-29T10:20:13;11.82;;;4.13;;
55913;SDS011;58179;48.776;9.124;2022-07-29T10:22:41;7.03;;;4.00;;
55913;SDS011;58179;48.776;9.124;2022-07-29T10:25:10;9.48;;;4.15;;
55913;SDS011;58179;48.776;9.124;2022-07-29T10:27:36;8.95;;;4.38;;
55913;SDS011;58179;48.776;9.124;2022-07-29T10:30:02;8.27;;;4.40;;
55913;SDS011;58179;48.776;9.124;2022-07-29T10:32:34;8.77;;;4.20;;
55913;SDS011;58179;48.776;9.124;2022-07-29T10:35:21;6.23;;;3.90;;
55913;SDS011;58179;48.776;9.124;2022-07-29T10:38:13;6.25;;;4.03;;
55913;SDS011;58179;48.776;9.124;2022-07-29T10:41:12;7.07;;;4.35;;
55913;SDS011;58179;48.776;9.124;2022-07-29T10:44:01;8.73;;;3.90;;
55913;SDS011;58179;48.776;9.124;2022-07-29T10:46:34;6.13;;;4.00;;
55913;SDS011;58179;48.776;9.124;2022-07-29T10:49:05;8.18;;;4.82;;
55913;SDS011;58179;48.776;9.124;2022-07-29T10:51:51;13.13;;;4.65;;
55913;SDS011;58179;48.776;9.124;2022-07-29T10:54:35;8.02;;;4.95;;
55913;SDS011;58179;48.776;9.124;2022-07-29T10:57:17;17.05;;;6.50;;
55913;SDS011;58179;48.776;9.124;2022-07-29T11:02:54;23.65;;;7.60;;
55913;SDS011;58179;48.776;9.124;2022-07-29T11:05:21;19.13;;;7.70;;
55913;SDS011;58179;48.776;9.124;2022-07-29T11:10:52;29.70;;;17.35;;
55913;SDS011;58179;48.776;9.124;2022-07-29T11:13:48;43.97;;;28.93;;
55913;SDS011;58179;48.776;9.124;2022-07-29T11:16:15;59.08;;;37.53;;
55913;SDS011;58179;48.776;9.124;2022-07-29T11:21:46;119.82;;;62.22;;
55913;SDS011;58179;48.776;9.124;2022-07-29T11:24:13;126.10;;;64.85;;
55913;SDS011;58179;48.776;9.124;2022-07-29T11:26:40;119.20;;;61.72;;
55913;SDS011;58179;48.776;9.124;2022-07-29T11:29:15;121.65;;;63.08;;
55913;SDS011;58179;48.776;9.124;2022-07-29T11:31:46;101.03;;;57.40;;
55913;SDS011;58179;48.776;9.124;2022-07-29T11:34:23;65.20;;;40.60;;
55913;SDS011;58179;48.776;9.124;2022-07-29T11:39:44;73.93;;;47.33;;
55913;SDS011;58179;48.776;9.124;2022-07-29T11:42:36;95.32;;;54.67;;
55913;SDS011;58179;48.776;9.124;2022-07-29T11:45:07;89.13;;;49.67;;
55913;SDS011;58179;48.776;9.124;2022-07-29T11:47:36;82.47;;;44.80;;
55913;SDS011;58179;48.776;9.124;2022-07-29T11:50:04;45.20;;;31.88;;
55913;SDS011;58179;48.776;9.124;2022-07-29T11:55:07;26.25;;;17.77;;
55913;SDS011;58179;48.776;9.124;2022-07-29T11:57:33;34.67;;;19.30;;
55913;SDS011;58179;48.776;9.124;2022-07-29T12:00:00;32.05;;;16.85;;
55913;SDS011;58179;48.776;9.124;2022-07-29T12:02:39;27.70;;;17.85;;
55913;SDS011;58179;48.776;9.124;2022-07-29T12:05:07;25.73;;;16.48;;
55913;SDS011;58179;48.776;9.124;2022-07-29T12:07:36;23.95;;;14.85;;
55913;SDS011;58179;48.776;9.124;2022-07-29T12:10:04;21.58;;;14.57;;
55913;SDS011;58179;48.776;9.124;2022-07-29T12:12:31;18.92;;;13.23;;
55913;SDS011;58179;48.776;9.124;2022-07-29T12:15:11;20.92;;;14.07;;
55913;SDS011;58179;48.776;9.124;2022-07-29T12:17:41;22.15;;;12.40;;
55913;SDS011;58179;48.776;9.124;2022-07-29T12:20:10;24.20;;;13.43;;
55913;SDS011;58179;48.776;9.124;2022-07-29T12:22:40;20.27;;;12.68;;
55913;SDS011;58179;48.776;9.124;2022-07-29T12:25:15;21.10;;;12.68;;
55913;SDS011;58179;48.776;9.124;2022-07-29T12:27:43;25.33;;;14.10;;
55913;SDS011;58179;48.776;9.124;2022-07-29T12:30:10;19.63;;;13.43;;
55913;SDS011;58179;48.776;9.124;2022-07-29T12:32:40;23.42;;;13.05;;
55913;SDS011;58179;48.776;9.124;2022-07-29T12:35:11;20.52;;;13.90;;
55913;SDS011;58179;48.776;9.124;2022-07-29T12:37:41;18.48;;;12.05;;
55913;SDS011;58179;48.776;9.124;2022-07-29T12:40:09;18.58;;;11.38;;
55913;SDS011;58179;48.776;9.124;2022-07-29T12:42:38;21.05;;;13.65;;
55913;SDS011;58179;48.776;9.124;2022-07-29T12:45:05;17.23;;;14.53;;
55913;SDS011;58179;48.776;9.124;2022-07-29T12:47:32;22.85;;;15.20;;
55913;SDS011;58179;48.776;9.124;2022-07-29T12:50:17;19.98;;;14.13;;
55913;SDS011;58179;48.776;9.124;2022-07-29T12:52:43;15.40;;;9.65;;
55913;SDS011;58179;48.776;9.124;2022-07-29T12:55:10;12.80;;;8.75;;
55913;SDS011;58179;48.776;9.124;2022-07-29T13:00:21;15.45;;;10.07;;
55913;SDS011;58179;48.776;9.124;2022-07-29T13:02:53;13.75;;;10.30;;
55913;SDS011;58179;48.776;9.124;2022-07-29T13:05:22;15.98;;;11.23;;
55913;SDS011;58179;48.776;9.124;2022-07-29T13:08:14;13.10;;;10.80;;
55913;SDS011;58179;48.776;9.124;2022-07-29T13:10:46;17.88;;;10.40;;
55913;SDS011;58179;48.776;9.124;2022-07-29T13:13:13;20.00;;;11.52;;
55913;SDS011;58179;48.776;9.124;2022-07-29T13:15:40;16.33;;;11.25;;
55913;SDS011;58179;48.776;9.124;2022-07-29T13:20:54;20.38;;;12.00;;
55913;SDS011;58179;48.776;9.124;2022-07-29T13:23:20;20.88;;;14.65;;
55913;SDS011;58179;48.776;9.124;2022-07-29T13:25:47;24.27;;;14.63;;
55913;SDS011;58179;48.776;9.124;2022-07-29T13:28:13;18.50;;;12.27;;
55913;SDS011;58179;48.776;9.124;2022-07-29T13:30:39;18.77;;;12.95;;
55913;SDS011;58179;48.776;9.124;2022-07-29T13:33:06;27.02;;;17.70;;
55913;SDS011;58179;48.776;9.124;2022-07-29T13:35:32;28.63;;;20.27;;
55913;SDS011;58179;48.776;9.124;2022-07-29T13:37:59;30.70;;;21.73;;
55913;SDS011;58179;48.776;9.124;2022-07-29T13:40:25;40.83;;;29.35;;
55913;SDS011;58179;48.776;9.124;2022-07-29T13:42:51;34.40;;;22.90;;
55913;SDS011;58179;48.776;9.124;2022-07-29T13:45:17;32.63;;;20.15;;
55913;SDS011;58179;48.776;9.124;2022-07-29T13:47:43;25.45;;;16.65;;
55913;SDS011;58179;48.776;9.124;2022-07-29T13:50:09;21.98;;;16.38;;
55913;SDS011;58179;48.776;9.124;2022-07-29T13:52:36;20.75;;;16.02;;
55913;SDS011;58179;48.776;9.124;2022-07-29T13:55:05;19.75;;;15.38;;
55913;SDS011;58179;48.776;9.124;2022-07-29T13:57:33;18.92;;;12.52;;
55913;SDS011;58179;48.776;9.124;2022-07-29T13:59:59;15.82;;;10.35;;
55913;SDS011;58179;48.776;9.124;2022-07-29T14:02:25;12.20;;;9.40;;
55913;SDS011;58179;48.776;9.124;2022-07-29T14:04:54;10.82;;;8.88;;
55913;SDS011;58179;48.776;9.124;2022-07-29T14:07:20;11.53;;;9.10;;
55913;SDS011;58179;48.776;9.124;2022-07-29T14:09:46;16.05;;;8.52;;
55913;SDS011;58179;48.776;9.124;2022-07-29T14:12:13;11.20;;;8.07;;
55913;SDS011;58179;48.776;9.124;2022-07-29T14:14:39;10.80;;;7.93;;
55913;SDS011;58179;48.776;9.124;2022-07-29T14:17:06;15.75;;;8.07;;
55913;SDS011;58179;48.776;9.124;2022-07-29T14:19:32;14.70;;;8.05;;
55913;SDS011;58179;48.776;9.124;2022-07-29T14:22:02;14.05;;;8.90;;
55913;SDS011;58179;48.776;9.124;2022-07-29T14:24:29;11.93;;;8.38;;
55913;SDS011;58179;48.776;9.124;2022-07-29T14:26:56;15.32;;;8.70;;
55913;SDS011;58179;48.776;9.124;2022-07-29T14:29:23;13.63;;;8.63;;
55913;SDS011;58179;48.776;9.124;2022-07-29T14:31:49;13.30;;;8.45;;
55913;SDS011;58179;48.776;9.124;2022-07-29T14:34:15;13.50;;;8.02;;
55913;SDS011;58179;48.776;9.124;2022-07-29T14:36:41;11.55;;;8.20;;
55913;SDS011;58179;48.776;9.124;2022-07-29T14:39:07;15.00;;;8.05;;
55913;SDS011;58179;48.776;9.124;2022-07-29T14:41:33;13.68;;;8.52;;
55913;SDS011;58179;48.776;9.124;2022-07-29T14:43:59;13.15;;;7.60;;
55913;SDS011;58179;48.776;9.124;2022-07-29T14:46:27;10.07;;;7.57;;
55913;SDS011;58179;48.776;9.124;2022-07-29T14:48:53;13.17;;;7.90;;
55913;SDS011;58179;48.776;9.124;2022-07-29T14:51:19;10.97;;;7.43;;
55913;SDS011;58179;48.776;9.124;2022-07-29T14:53:45;11.40;;;6.73;;
55913;SDS011;58179;48.776;9.124;2022-07-29T14:56:11;13.20;;;7.13;;
55913;SDS011;58179;48.776;9.124;2022-07-29T14:58:37;13.73;;;7.50;;
55913;SDS011;58179;48.776;9.124;2022-07-29T15:01:03;13.50;;;6.20;;
55913;SDS011;58179;48.776;9.124;2022-07-29T15:03:30;11.67;;;6.97;;
55913;SDS011;58179;48.776;9.124;2022-07-29T15:05:56;11.90;;;7.03;;
55913;SDS011;58179;48.776;9.124;2022-07-29T15:08:22;14.98;;;7.40;;
55913;SDS011;58179;48.776;9.124;2022-07-29T15:10:50;10.48;;;6.95;;
55913;SDS011;58179;48.776;9.124;2022-07-29T15:13:16;12.32;;;6.78;;
55913;SDS011;58179;48.776;9.124;2022-07-29T15:15:42;15.55;;;6.35;;